Latest Weather Observations for Kurnell

IDN60801

Issued at 8:04 pm EST Tuesday 28 July 2015 (issued every 30 minutes, with the page automatically refreshed every 10 minutes)

About weather observations | Map of weather stations | Latest weather observations for NSW | Other Formats
Station Details ID: 066043 Name: KURNELL AWS Lat: -34.00 Lon: 151.21 Height: 4.0 m
Data from the previous 72 hours. | See also: Recent months for locations in New South Wales
Date/Time
EST
Temp
°C
App
Temp
°C
Dew
Point
Rel
Hum
%
Delta-T
°C
Wind Press
QNH
hPa
Press
MSL
hPa
Rain
since 9 am
mm
Dir
 
Spd
km/h
Gust
km/h
Spd
kts
Gust
kts
28/08:00pm - - - - - WSW 6 7 3 4 - - -
28/07:30pm - - - - - SSW 9 11 5 6 - - -
28/07:00pm - - - - - SSW 11 13 6 7 - - -
28/06:30pm - - - - - S 13 17 7 9 - - -
28/06:00pm - - - - - S 15 19 8 10 - - -
28/05:30pm - - - - - SSW 13 17 7 9 - - -
28/05:00pm - - - - - SSW 15 20 8 11 - - -
28/04:30pm - - - - - SSW 19 22 10 12 - - -
28/04:00pm - - - - - SSW 19 26 10 14 - - -
28/03:30pm - - - - - S 19 26 10 14 - - -
28/03:00pm - - - - - S 26 32 14 17 - - -
28/02:30pm - - - - - S 24 32 13 17 - - -
28/02:00pm - - - - - SSW 28 35 15 19 - - -
28/01:30pm - - - - - SSW 22 30 12 16 - - -
28/01:00pm - - - - - SSW 22 32 12 17 - - -
28/12:30pm - - - - - SSW 28 37 15 20 - - -
28/12:00pm - - - - - SSW 19 28 10 15 - - -
28/11:30am - - - - - WNW 17 20 9 11 - - -
28/11:00am - - - - - WNW 22 24 12 13 - - -
28/10:30am - - - - - W 26 30 14 16 - - -
28/10:00am - - - - - W 28 30 15 16 - - -
28/09:30am - - - - - WNW 28 32 15 17 - - -
28/09:00am - - - - - W 30 35 16 19 - - -
28/08:30am - - - - - W 28 33 15 18 - - -
28/08:00am - - - - - W 28 32 15 17 - - -
28/07:30am - - - - - W 26 30 14 16 - - -
28/07:00am - - - - - W 28 32 15 17 - - -
28/06:30am - - - - - W 26 30 14 16 - - -
28/06:00am - - - - - W 30 33 16 18 - - -
28/05:30am - - - - - W 32 37 17 20 - - -
28/05:00am - - - - - W 32 39 17 21 - - -
28/04:30am - - - - - W 32 37 17 20 - - -
28/04:00am - - - - - W 30 37 16 20 - - -
28/03:30am - - - - - WNW 28 32 15 17 - - -
28/03:00am - - - - - NW 24 28 13 15 - - -
28/02:30am - - - - - WNW 28 33 15 18 - - -
28/02:00am - - - - - NW 22 28 12 15 - - -
28/01:30am - - - - - WNW 28 33 15 18 - - -
28/01:00am - - - - - WNW 30 35 16 19 - - -
28/12:30am - - - - - W 35 41 19 22 - - -
28/12:00am - - - - - W 39 50 21 27 - - -
 
Date/Time
EST
Temp
°C
App
Temp
°C
Dew
Point
Rel
Hum
%
Delta-T
°C
Wind Press
QNH
hPa
Press
MSL
hPa
Rain
since 9 am
mm
Dir
 
Spd
km/h
Gust
km/h
Spd
kts
Gust
kts
27/11:30pm - - - - - W 37 46 20 25 - - -
27/11:00pm - - - - - W 35 43 19 23 - - -
27/10:30pm - - - - - W 35 43 19 23 - - -
27/10:00pm - - - - - W 37 44 20 24 - - -
27/09:30pm - - - - - W 37 44 20 24 - - -
27/09:00pm - - - - - W 37 48 20 26 - - -
27/08:30pm - - - - - W 33 39 18 21 - - -
27/08:00pm - - - - - W 28 32 15 17 - - -
27/07:30pm - - - - - W 26 32 14 17 - - -
27/07:00pm - - - - - W 28 33 15 18 - - -
27/06:30pm - - - - - W 32 37 17 20 - - -
27/06:00pm - - - - - W 32 37 17 20 - - -
27/05:30pm - - - - - W 28 33 15 18 - - -
27/05:00pm - - - - - W 26 30 14 16 - - -
27/04:30pm - - - - - W 26 32 14 17 - - -
27/04:00pm - - - - - W 32 39 17 21 - - -
27/03:30pm - - - - - W 32 39 17 21 - - -
27/03:00pm - - - - - W 28 37 15 20 - - -
27/02:30pm - - - - - WSW 30 37 16 20 - - -
27/02:00pm - - - - - W 26 32 14 17 - - -
27/01:30pm - - - - - W 30 39 16 21 - - -
27/01:00pm - - - - - W 35 44 19 24 - - -
27/12:30pm - - - - - W 33 43 18 23 - - -
27/12:00pm - - - - - W 37 48 20 26 - - -
27/11:30am - - - - - W 37 48 20 26 - - -
27/11:00am - - - - - W 37 50 20 27 - - -
27/10:57am - - - - - W 32 50 17 27 - - -
27/10:30am - - - - - W 32 39 17 21 - - -
27/10:00am - - - - - W 32 41 17 22 - - -
27/09:30am - - - - - WSW 19 26 10 14 - - -
27/09:00am - - - - - SSW 15 22 8 12 - - -
27/08:30am - - - - - SW 15 24 8 13 - - -
27/08:00am - - - - - W 28 37 15 20 - - -
27/07:30am - - - - - WNW 24 33 13 18 - - -
27/07:00am - - - - - WNW 24 32 13 17 - - -
27/06:30am - - - - - WNW 28 35 15 19 - - -
27/06:00am - - - - - WNW 26 35 14 19 - - -
27/05:30am - - - - - WNW 26 32 14 17 - - -
27/05:00am - - - - - WNW 33 39 18 21 - - -
27/04:30am - - - - - NW 37 44 20 24 - - -
27/04:00am - - - - - WNW 37 52 20 28 - - -
27/03:30am - - - - - WNW 37 44 20 24 - - -
27/03:00am - - - - - WNW 33 39 18 21 - - -
27/02:30am - - - - - WNW 39 46 21 25 - - -
27/02:00am - - - - - WNW 37 50 20 27 - - -
27/01:30am - - - - - WNW 41 50 22 27 - - -
27/01:00am - - - - - WNW 41 50 22 27 - - -
27/12:30am - - - - - WNW 41 48 22 26 - - -
27/12:00am - - - - - WNW 30 37 16 20 - - -
 
Date/Time
EST
Temp
°C
App
Temp
°C
Dew
Point
Rel
Hum
%
Delta-T
°C
Wind Press
QNH
hPa
Press
MSL
hPa
Rain
since 9 am
mm
Dir
 
Spd
km/h
Gust
km/h
Spd
kts
Gust
kts
26/11:30pm - - - - - W 28 33 15 18 - - -
26/11:00pm - - - - - W 26 32 14 17 - - -
26/10:30pm - - - - - WSW 17 20 9 11 - - -
26/10:00pm - - - - - W 17 19 9 10 - - -
26/09:30pm - - - - - WSW 28 35 15 19 - - -
26/09:00pm - - - - - WSW 35 46 19 25 - - -
26/08:49pm - - - - - WSW 32 52 17 28 - - -
26/08:30pm - - - - - WSW 24 33 13 18 - - -
26/08:00pm - - - - - SSW 15 20 8 11 - - -
26/07:30pm - - - - - W 35 44 19 24 - - -
26/07:00pm - - - - - W 46 57 25 31 - - -
26/06:55pm - - - - - W 43 57 23 31 - - -
26/06:30pm - - - - - WNW 37 48 20 26 - - -
26/06:00pm - - - - - WNW 52 61 28 33 - - -
26/05:30pm - - - - - WNW 44 57 24 31 - - -
26/05:00pm - - - - - WNW 41 52 22 28 - - -
26/04:30pm - - - - - WNW 44 54 24 29 - - -
26/04:20pm - - - - - WNW 46 65 25 35 - - -
26/04:00pm - - - - - WNW 50 59 27 32 - - -
26/03:44pm - - - - - WNW 50 69 27 37 - - -
26/03:30pm - - - - - WNW 50 59 27 32 - - -
26/03:09pm - - - - - WNW 41 57 22 31 - - -
26/03:00pm - - - - - WNW 41 52 22 28 - - -
26/02:30pm - - - - - WNW 44 54 24 29 - - -
26/02:00pm - - - - - WNW 41 50 22 27 - - -
26/01:30pm - - - - - WNW 37 50 20 27 - - -
26/01:01pm - - - - - NW 35 56 19 30 - - -
26/01:00pm - - - - - NW 33 48 18 26 - - -
26/12:56pm - - - - - NW 28 48 15 26 - - -
26/12:30pm - - - - - NW 32 41 17 22 - - -
26/12:00pm - - - - - NNW 24 30 13 16 - - -
26/11:30am - - - - - NNW 22 30 12 16 - - -
26/11:00am - - - - - NNW 19 28 10 15 - - -
26/10:30am - - - - - NNW 20 28 11 15 - - -
26/10:00am - - - - - NNW 15 17 8 9 - - -
26/09:30am - - - - - NNW 15 19 8 10 - - -
26/09:00am - - - - - NNW 20 28 11 15 - - -
26/08:30am - - - - - NNW 17 20 9 11 - - -
26/08:00am - - - - - NNW 15 19 8 10 - - -
26/07:30am - - - - - NNW 13 19 7 10 - - -
26/07:00am - - - - - NNW 17 20 9 11 - - -
26/06:30am - - - - - NW 15 19 8 10 - - -
26/06:00am - - - - - NNW 15 19 8 10 - - -
26/05:30am - - - - - NNW 13 15 7 8 - - -
26/05:00am - - - - - NNW 13 15 7 8 - - -
26/04:30am - - - - - NNW 13 17 7 9 - - -
26/04:00am - - - - - NNW 11 15 6 8 - - -
26/03:30am - - - - - N 17 19 9 10 - - -
26/03:00am - - - - - N 15 19 8 10 - - -
26/02:30am - - - - - N 19 22 10 12 - - -
26/02:00am - - - - - N 20 26 11 14 - - -
26/01:30am - - - - - N 20 28 11 15 - - -
26/01:00am - - - - - N 17 20 9 11 - - -
26/12:30am - - - - - NNW 19 24 10 13 - - -
26/12:00am - - - - - NW 19 24 10 13 - - -
 
Date/Time
EST
Temp
°C
App
Temp
°C
Dew
Point
Rel
Hum
%
Delta-T
°C
Wind Press
QNH
hPa
Press
MSL
hPa
Rain
since 9 am
mm
Dir
 
Spd
km/h
Gust
km/h
Spd
kts
Gust
kts
25/11:30pm - - - - - NW 17 19 9 10 - - -
25/11:00pm - - - - - NNW 17 20 9 11 - - -
25/10:30pm - - - - - NNW 13 17 7 9 - - -
25/10:00pm - - - - - NNW 17 20 9 11 - - -
25/09:30pm - - - - - N 13 17 7 9 - - -
25/09:00pm - - - - - N 13 17 7 9 - - -
25/08:30pm - - - - - NW 15 19 8 10 - - -

Other Formats:

Comma delimited format used in spreadsheet applications
http://www.bom.gov.au/fwo/IDN60801/IDN60801.95756.axf

JavaScript Object Notation format (JSON) in row-major order
http://www.bom.gov.au/fwo/IDN60801/IDN60801.95756.json